Attila, Illinois
Current Conditions -  °F | °C
As of 3:53 PM on Monday 22 Dec 2014 (Local Time) from KMWA Reporting Station
Moderate Rain Moderate Rain  
Wind Chill: 52°   Ceiling: 600
Heat Index: 52°   Visibility: 5mi
Dew Point: 50°   Wind: 12mph
Humidity: 94%   Direction: 160°SSE
Pressure: 29.61"   Gusts: NA
Location:  37.7887°N, 88.8655°W
Report Text: KMWA 222153Z 16010KT 5SM RA OVC006 11/10 A2961
Loading
Personal Weather Stations






























Interactive Weather Map New forecast layout! Learn more

10-Day Weather Forecast

Advertisements
Track Severe Weather on mobile